Time;durP1;ratioP1;P1;durP2;ratioP2;P2;SDS_P1;SDS_P2;PMS_P1;PMS_P2;Temp;Humidity;BMP_temperature;BMP_pressure;BME280_temperature;BME280_humidity;BME280_pressure;Samples;Min_cycle;Max_cycle;Signal;HPM_P1;HPM_P2
2021/04/17 00:01:28;;;;;;;13.15;7.30;;;;;;;6.92;94.30;99221.25;3465195;28;20054;-57
2021/04/17 00:03:09;;;;;;;14.02;8.43;;;;;;;6.93;94.06;99217.84;3468563;28;20056;-57
2021/04/17 00:04:51;;;;;;;12.77;7.50;;;;;;;6.95;94.07;99223.00;3465445;28;20042;-49
2021/04/17 00:06:32;;;;;;;13.18;8.18;;;;;;;6.98;94.31;99220.53;3468107;28;20061;-47
2021/04/17 00:08:14;;;;;;;11.48;7.45;;;;;;;6.98;94.50;99211.09;3465671;28;20057;-47
2021/04/17 00:09:56;;;;;;;12.93;7.82;;;;;;;6.99;94.30;99223.13;3466398;28;20568;-49
2021/04/17 00:11:38;;;;;;;11.85;7.47;;;;;;;6.97;94.17;99214.50;3466964;28;20085;-48
2021/04/17 00:13:19;;;;;;;11.85;6.88;;;;;;;6.97;94.42;99217.09;3463527;28;20053;-49
2021/04/17 00:15:00;;;;;;;12.73;8.07;;;;;;;6.97;94.39;99219.66;3454764;28;20423;-48
2021/04/17 00:16:42;;;;;;;13.15;8.13;;;;;;;6.97;94.26;99221.38;3461801;28;20049;-48
2021/04/17 00:18:23;;;;;;;13.95;8.18;;;;;;;6.96;94.29;99222.19;3468737;28;20053;-48
2021/04/17 00:20:06;;;;;;;12.63;8.15;;;;;;;6.94;94.35;99223.84;3468110;28;20049;-48
2021/04/17 00:21:47;;;;;;;10.85;7.03;;;;;;;6.92;94.36;99226.41;3468253;28;20046;-49
2021/04/17 00:23:29;;;;;;;16.33;9.90;;;;;;;6.89;93.96;99226.31;3471002;28;20080;-58
2021/04/17 00:25:12;;;;;;;13.25;8.13;;;;;;;6.84;94.12;99223.66;3467390;28;20411;-58
2021/04/17 00:26:53;;;;;;;12.88;8.13;;;;;;;6.80;94.22;99227.00;3470848;28;20088;-58
2021/04/17 00:28:35;;;;;;;12.93;8.50;;;;;;;6.77;94.34;99221.78;3467321;28;20422;-59
2021/04/17 00:30:18;;;;;;;14.10;9.32;;;;;;;6.75;94.21;99225.16;3470572;28;20099;-49
2021/04/17 00:32:00;;;;;;;14.70;9.18;;;;;;;6.72;94.42;99228.56;3467486;28;20075;-53
2021/04/17 00:33:41;;;;;;;11.65;7.85;;;;;;;6.69;94.20;99226.75;3468442;28;20076;-53
2021/04/17 00:35:22;;;;;;;11.60;7.30;;;;;;;6.67;94.47;99228.44;3469944;28;20045;-48
2021/04/17 00:37:04;;;;;;;10.82;6.88;;;;;;;6.66;94.20;99224.09;3467002;28;20080;-53
2021/04/17 00:38:46;;;;;;;9.35;6.47;;;;;;;6.66;94.53;99228.41;3470896;28;20049;-53
2021/04/17 00:40:27;;;;;;;9.93;6.57;;;;;;;6.67;94.51;99233.59;3467148;28;20493;-53
2021/04/17 00:42:09;;;;;;;9.70;6.45;;;;;;;6.66;94.63;99231.84;3470065;28;20503;-54
2021/04/17 00:43:51;;;;;;;10.95;6.70;;;;;;;6.66;94.69;99229.25;3467298;28;20095;-53
2021/04/17 00:45:33;;;;;;;10.40;7.40;;;;;;;6.66;94.40;99231.84;3468385;28;20045;-53
2021/04/17 00:47:14;;;;;;;8.80;6.20;;;;;;;6.64;94.50;99228.38;3469706;28;20057;-57
2021/04/17 00:49:13;;;;;;;10.32;6.40;;;;;;;6.63;94.45;99228.31;3467242;28;20107;-59
2021/04/17 00:50:55;;;;;;;10.60;7.07;;;;;;;6.58;94.16;99225.66;3470712;28;20049;-59
2021/04/17 00:52:36;;;;;;;11.38;7.72;;;;;;;6.55;94.28;99225.59;3467076;28;20104;-59
2021/04/17 00:54:19;;;;;;;10.68;6.80;;;;;;;6.51;94.31;99232.38;3468676;28;20061;-59
2021/04/17 00:56:04;;;;;;;13.82;7.95;;;;;;;6.49;94.36;99238.34;3469322;28;20052;-59
2021/04/17 00:57:46;;;;;;;12.25;7.88;;;;;;;6.48;94.84;99232.31;3467728;28;20054;-50
2021/04/17 00:59:27;;;;;;;10.95;7.32;;;;;;;6.49;94.70;99238.34;3456852;28;20064;-53
2021/04/17 01:01:09;;;;;;;12.82;7.53;;;;;;;6.50;94.77;99238.34;3463426;28;20045;-50
2021/04/17 01:02:58;;;;;;;13.18;7.57;;;;;;;6.51;94.89;99239.25;3470379;28;20049;-49
2021/04/17 01:04:43;;;;;;;11.43;7.20;;;;;;;6.49;94.85;99238.34;3467535;28;20049;-54
2021/04/17 01:06:32;;;;;;;8.52;5.95;;;;;;;6.47;94.76;99237.41;3468201;28;20455;-50
2021/04/17 01:08:22;;;;;;;9.93;6.78;;;;;;;6.45;94.38;99244.25;3470261;28;20057;-49
2021/04/17 01:10:09;;;;;;;9.82;6.78;;;;;;;6.42;94.47;99242.47;3467498;28;20426;-49
2021/04/17 01:11:57;;;;;;;9.30;6.10;;;;;;;6.38;93.94;99243.22;3469780;28;20103;-51
2021/04/17 01:13:42;;;;;;;9.80;6.35;;;;;;;6.35;94.13;99245.75;3466200;28;20498;-49
2021/04/17 01:15:24;;;;;;;8.70;6.07;;;;;;;6.34;93.77;99246.56;3467062;28;20053;-49
2021/04/17 01:17:07;;;;;;;6.82;5.10;;;;;;;6.30;93.93;99243.06;3470126;28;20045;-49
2021/04/17 01:18:51;;;;;;;6.43;4.90;;;;;;;6.28;93.68;99246.44;3466890;28;20052;-52
2021/04/17 01:20:36;;;;;;;8.18;5.60;;;;;;;6.25;93.17;99239.50;3470210;28;20072;-51
2021/04/17 01:22:21;;;;;;;11.88;6.35;;;;;;;6.23;93.15;99245.47;3467014;28;20072;-54
2021/04/17 01:24:07;;;;;;;9.20;6.40;;;;;;;6.21;93.30;99242.84;3468138;28;20053;-51
2021/04/17 01:25:53;;;;;;;10.50;7.10;;;;;;;6.20;93.26;99240.22;3468796;28;20084;-52
2021/04/17 01:27:36;;;;;;;9.90;6.88;;;;;;;6.17;92.95;99238.47;3465337;28;20050;-52
2021/04/17 01:29:18;;;;;;;9.95;6.70;;;;;;;6.17;93.10;99250.44;3469887;28;20050;-53
2021/04/17 01:31:00;;;;;;;9.98;6.28;;;;;;;6.16;93.20;99251.31;3465205;28;20046;-59
2021/04/17 01:32:43;;;;;;;10.65;7.13;;;;;;;6.15;93.47;99245.25;3469816;28;20057;-59
2021/04/17 01:34:25;;;;;;;10.00;6.75;;;;;;;6.15;93.43;99259.84;3467483;28;20111;-58
2021/04/17 01:36:08;;;;;;;11.23;6.88;;;;;;;6.14;93.62;99256.41;3468066;28;20445;-51
2021/04/17 01:38:06;;;;;;;9.93;6.22;;;;;;;6.12;93.30;99252.94;3457751;28;20089;-49
2021/04/17 01:39:48;;;;;;;10.23;6.72;;;;;;;6.10;93.47;99258.03;3462347;28;20119;-49
2021/04/17 01:41:33;;;;;;;9.30;6.70;;;;;;;6.09;93.35;99261.44;3469130;28;20434;-49
2021/04/17 01:43:17;;;;;;;9.88;7.18;;;;;;;6.08;93.69;99256.25;3466786;28;20096;-49
2021/04/17 01:44:59;;;;;;;11.43;7.35;;;;;;;6.06;93.26;99258.78;3466970;28;20049;-49
2021/04/17 01:46:44;;;;;;;9.85;6.78;;;;;;;6.06;93.25;99260.47;3468946;28;20053;-47
2021/04/17 01:48:28;;;;;;;9.45;6.18;;;;;;;6.04;93.19;99264.72;3466602;28;20060;-49
2021/04/17 01:50:13;;;;;;;11.90;7.50;;;;;;;6.00;93.60;99268.94;3470022;28;20049;-48
2021/04/17 01:52:00;;;;;;;10.23;6.68;;;;;;;5.98;93.41;99259.41;3466867;28;20133;-55
2021/04/17 01:53:43;;;;;;;10.48;6.97;;;;;;;5.97;93.58;99255.13;3467951;28;20510;-55
2021/04/17 01:55:29;;;;;;;10.70;6.97;;;;;;;5.93;93.50;99260.19;3468237;28;20533;-54
2021/04/17 01:57:15;;;;;;;8.40;6.05;;;;;;;5.91;93.40;99263.56;3466378;28;20053;-53
2021/04/17 01:58:58;;;;;;;11.75;6.72;;;;;;;5.90;93.96;99257.50;3469759;28;20490;-54
2021/04/17 02:00:40;;;;;;;10.70;6.70;;;;;;;5.89;93.76;99258.38;3461391;28;20523;-54
2021/04/17 02:02:22;;;;;;;10.25;6.50;;;;;;;5.88;93.88;99259.19;3456787;28;20112;-54
2021/04/17 02:04:04;;;;;;;11.00;6.75;;;;;;;5.89;94.28;99266.09;3467156;28;20049;-55
2021/04/17 02:05:47;;;;;;;9.82;6.22;;;;;;;5.90;93.99;99265.25;3466661;28;20052;-52
2021/04/17 02:07:29;;;;;;;13.57;6.20;;;;;;;5.91;93.96;99260.97;3469403;28;20400;-54
2021/04/17 02:09:10;;;;;;;11.95;6.75;;;;;;;5.92;93.95;99265.28;3466254;28;20053;-51
2021/04/17 02:10:52;;;;;;;11.38;6.70;;;;;;;5.92;94.25;99265.28;3469619;28;20088;-52
2021/04/17 02:12:35;;;;;;;12.93;6.97;;;;;;;5.92;94.26;99262.72;3466289;28;20045;-52
2021/04/17 02:14:17;;;;;;;11.25;6.82;;;;;;;5.91;94.11;99267.00;3467737;28;20200;-54
2021/04/17 02:16:04;;;;;;;8.57;5.50;;;;;;;5.93;94.37;99265.31;3467029;28;20422;-51
2021/04/17 02:17:51;;;;;;;9.38;5.40;;;;;;;5.94;94.14;99264.50;3466321;28;20410;-56
2021/04/17 02:19:35;;;;;;;8.77;6.05;;;;;;;5.94;94.26;99269.66;3469466;28;20507;-58
2021/04/17 02:21:20;;;;;;;;;;;;;;;5.95;94.14;99275.66;3466780;28;20054;-58
2021/04/17 02:23:01;;;;;;;7.85;5.32;;;;;;;5.95;94.07;99273.09;3469116;28;20450;-58
2021/04/17 02:24:43;;;;;;;8.65;5.38;;;;;;;5.95;94.02;99280.81;3466739;28;20049;-51
2021/04/17 02:26:25;;;;;;;8.75;5.55;;;;;;;5.95;93.97;99275.66;3467392;28;20049;-48
2021/04/17 02:28:08;;;;;;;8.63;5.63;;;;;;;5.97;93.83;99283.44;3468098;28;20457;-48
2021/04/17 02:29:52;;;;;;;8.23;5.38;;;;;;;5.96;93.94;99282.56;3466179;28;21189;-47
2021/04/17 02:31:34;;;;;;;8.27;6.00;;;;;;;5.97;94.05;99289.44;3469432;28;20049;-47
2021/04/17 02:33:15;;;;;;;10.90;5.88;;;;;;;5.99;93.77;99281.75;3465979;28;20146;-51
2021/04/17 02:34:57;;;;;;;10.45;6.47;;;;;;;5.98;93.92;99292.88;3468362;28;20049;-50
2021/04/17 02:36:38;;;;;;;14.13;8.35;;;;;;;5.98;94.19;99292.88;3465866;28;20545;-51
2021/04/17 02:38:20;;;;;;;17.98;9.98;;;;;;;5.98;94.15;99290.31;3465983;28;20128;-55
2021/04/17 02:40:01;;;;;;;12.52;7.00;;;;;;;5.98;93.79;99290.31;3467914;28;20505;-52
2021/04/17 02:41:43;;;;;;;18.85;9.98;;;;;;;5.95;94.27;99288.53;3465238;28;20045;-52
2021/04/17 02:43:25;;;;;;;18.60;8.82;;;;;;;5.93;94.04;99293.63;3469385;28;20079;-52
2021/04/17 02:45:07;;;;;;;21.73;10.93;;;;;;;5.93;94.14;99297.94;3465888;28;20049;-54
2021/04/17 02:46:48;;;;;;;19.83;10.77;;;;;;;5.91;94.19;99299.59;3468957;28;20095;-50
2021/04/17 02:48:30;;;;;;;23.27;10.95;;;;;;;5.90;94.35;99300.41;3466492;28;20050;-49
2021/04/17 02:50:13;;;;;;;21.00;11.82;;;;;;;5.88;94.84;99305.53;3467518;28;20042;-49
2021/04/17 02:51:54;;;;;;;20.15;10.55;;;;;;;5.85;94.55;99300.31;3457667;28;20054;-50
2021/04/17 02:53:36;;;;;;;22.00;11.93;;;;;;;5.85;94.69;99307.16;3460113;28;20049;-49
2021/04/17 02:55:19;;;;;;;21.33;11.60;;;;;;;5.84;94.71;99303.69;3455607;28;20447;-50
2021/04/17 02:57:00;;;;;;;23.10;12.18;;;;;;;5.83;94.88;99306.22;3463197;28;20439;-49
2021/04/17 02:58:42;;;;;;;22.77;11.77;;;;;;;5.83;94.81;99311.38;3468817;28;20132;-50
2021/04/17 03:00:24;;;;;;;19.88;10.90;;;;;;;5.81;94.62;99311.34;3466328;28;20085;-49
2021/04/17 03:02:05;;;;;;;23.90;12.75;;;;;;;5.79;94.72;99314.72;3466511;28;20045;-49
2021/04/17 03:03:47;;;;;;;25.85;12.98;;;;;;;5.78;94.69;99315.53;3468945;28;20045;-48
2021/04/17 03:05:28;;;;;;;25.15;12.45;;;;;;;5.78;95.00;99315.53;3465559;28;20056;-50
2021/04/17 03:07:09;;;;;;;24.05;12.88;;;;;;;5.78;94.91;99321.53;3469057;28;20054;-49
2021/04/17 03:08:51;;;;;;;18.80;9.23;;;;;;;5.77;94.88;99319.81;3465729;28;20139;-49
2021/04/17 03:10:33;;;;;;;18.88;10.18;;;;;;;5.77;95.09;99321.53;3468739;28;20052;-48
2021/04/17 03:12:14;;;;;;;24.17;13.00;;;;;;;5.75;94.81;99322.34;3465991;28;20084;-50
2021/04/17 03:13:57;;;;;;;26.77;13.80;;;;;;;5.74;94.73;99323.16;3465146;28;20045;-50
2021/04/17 03:15:39;;;;;;;25.45;12.88;;;;;;;5.74;94.74;99328.31;3468647;28;20050;-50
2021/04/17 03:17:20;;;;;;;29.00;14.48;;;;;;;5.72;94.76;99323.97;3465470;28;20418;-49
2021/04/17 03:19:02;;;;;;;25.10;13.23;;;;;;;5.70;94.86;99331.63;3468900;28;20049;-49
2021/04/17 03:20:43;;;;;;;26.77;14.00;;;;;;;5.68;94.78;99337.59;3465600;28;20046;-49
2021/04/17 03:22:25;;;;;;;24.48;12.95;;;;;;;5.66;94.41;99326.34;3468493;28;20045;-50
2021/04/17 03:24:06;;;;;;;25.48;13.27;;;;;;;5.65;95.05;99337.50;3465941;28;20056;-49
2021/04/17 03:25:48;;;;;;;26.70;13.52;;;;;;;5.63;95.00;99334.88;3466859;28;20085;-51
2021/04/17 03:27:29;;;;;;;21.80;11.38;;;;;;;5.60;94.59;99328.78;3467433;28;20049;-49
2021/04/17 03:29:11;;;;;;;30.17;16.05;;;;;;;5.61;95.01;99336.53;3465807;28;20127;-51
2021/04/17 03:30:52;;;;;;;33.83;17.63;;;;;;;5.60;95.07;99337.34;3469040;28;20056;-51
2021/04/17 03:32:34;;;;;;;31.73;17.17;;;;;;;5.58;95.09;99343.28;3464946;28;20045;-53
2021/04/17 03:34:16;;;;;;;29.48;15.65;;;;;;;5.54;95.02;99340.63;3467802;28;20584;-55
2021/04/17 03:35:57;;;;;;;26.98;14.85;;;;;;;5.53;95.16;99345.72;3465037;28;20510;-51
2021/04/17 03:37:40;;;;;;;27.25;15.32;;;;;;;5.51;95.24;99342.25;3465567;28;20506;-54
2021/04/17 03:39:21;;;;;;;29.20;15.35;;;;;;;5.49;95.15;99344.78;3467516;28;20057;-52
2021/04/17 03:41:03;;;;;;;27.50;14.65;;;;;;;5.49;95.10;99352.50;3465495;28;20050;-55
2021/04/17 03:42:44;;;;;;;26.70;13.25;;;;;;;5.49;95.26;99361.91;3468908;28;20172;-55
2021/04/17 03:44:26;;;;;;;25.95;14.02;;;;;;;5.49;95.00;99354.19;3465405;28;20418;-52
2021/04/17 03:46:08;;;;;;;25.83;13.50;;;;;;;5.49;95.15;99355.06;3468159;28;20501;-55
2021/04/17 03:47:49;;;;;;;26.25;13.93;;;;;;;5.51;95.35;99355.97;3465715;28;20053;-54
2021/04/17 03:49:31;;;;;;;28.85;14.57;;;;;;;5.52;94.97;99368.03;3466317;28;20099;-54
2021/04/17 03:51:12;;;;;;;23.67;12.82;;;;;;;5.52;95.08;99357.72;3467878;28;20049;-51
2021/04/17 03:52:53;;;;;;;20.70;11.30;;;;;;;5.53;95.11;99366.31;3465263;28;20054;-52
2021/04/17 03:54:35;;;;;;;18.77;10.20;;;;;;;5.52;94.95;99365.44;3468551;28;20103;-52
2021/04/17 03:56:16;;;;;;;25.85;13.43;;;;;;;5.54;95.17;99368.06;3465356;28;20384;-57
2021/04/17 03:57:58;;;;;;;20.33;11.95;;;;;;;5.54;94.80;99368.06;3468282;28;20782;-59
2021/04/17 03:59:40;;;;;;;26.00;13.43;;;;;;;5.55;94.88;99367.22;3459289;28;20495;-59
2021/04/17 04:01:21;;;;;;;22.83;12.35;;;;;;;5.56;95.00;99371.56;3456851;28;20041;-60
2021/04/17 04:03:03;;;;;;;19.52;11.15;;;;;;;5.55;94.95;99375.84;3467632;28;20050;-59
2021/04/17 04:04:44;;;;;;;23.67;12.85;;;;;;;5.56;94.82;99374.13;3465290;28;20096;-59
2021/04/17 04:06:26;;;;;;;25.50;12.73;;;;;;;5.56;94.93;99376.69;3468452;28;20049;-57
2021/04/17 04:08:07;;;;;;;16.15;8.65;;;;;;;5.55;94.95;99378.41;3465351;28;20112;-57
2021/04/17 04:09:48;;;;;;;23.20;11.35;;;;;;;5.56;94.71;99381.84;3468066;28;20049;-55
2021/04/17 04:11:30;;;;;;;20.98;11.18;;;;;;;5.58;94.84;99376.75;3465555;28;20053;-51
2021/04/17 04:13:11;;;;;;;22.02;12.52;;;;;;;5.59;94.81;99381.94;3465884;28;20049;-53
2021/04/17 04:14:53;;;;;;;21.20;11.90;;;;;;;5.59;94.97;99384.50;3467073;28;20095;-53
2021/04/17 04:16:34;;;;;;;22.17;12.35;;;;;;;5.57;94.87;99391.31;3464923;28;20049;-52
2021/04/17 04:18:16;;;;;;;19.10;11.27;;;;;;;5.55;95.07;99396.41;3468378;28;20573;-54
2021/04/17 04:19:57;;;;;;;20.63;11.85;;;;;;;5.50;94.79;99394.50;3464954;28;20057;-54
2021/04/17 04:21:38;;;;;;;22.50;11.98;;;;;;;5.46;94.79;99390.97;3468297;28;20529;-53
2021/04/17 04:23:20;;;;;;;21.60;11.80;;;;;;;5.43;94.86;99398.63;3465399;28;20053;-53
2021/04/17 04:25:02;;;;;;;19.95;11.43;;;;;;;5.39;94.60;99404.50;3465236;28;20050;-54
2021/04/17 04:26:44;;;;;;;21.88;12.48;;;;;;;5.36;94.93;99410.44;3467231;28;20095;-48
2021/04/17 04:28:25;;;;;;;18.23;10.45;;;;;;;5.34;94.79;99403.47;3464713;28;20533;-48
2021/04/17 04:30:10;;;;;;;20.27;11.65;;;;;;;5.31;95.10;99408.56;3454846;28;20054;-49
2021/04/17 04:31:51;;;;;;;19.73;11.15;;;;;;;5.30;95.17;99412.78;3459233;28;20053;-48
2021/04/17 04:33:33;;;;;;;16.88;10.68;;;;;;;5.29;95.04;99415.31;3454537;28;20102;-48
2021/04/17 04:35:15;;;;;;;22.25;11.80;;;;;;;5.29;95.50;99410.19;3465380;28;20045;-48
2021/04/17 04:36:56;;;;;;;20.45;11.40;;;;;;;5.29;95.53;99413.63;3465124;28;20143;-49
2021/04/17 04:38:38;;;;;;;18.38;11.00;;;;;;;5.31;95.29;99413.69;3467812;28;20523;-49
2021/04/17 04:40:19;;;;;;;19.92;10.90;;;;;;;5.32;95.55;99410.28;3465056;28;20054;-49
2021/04/17 04:42:00;;;;;;;15.63;9.38;;;;;;;5.31;95.41;99411.97;3468080;28;20558;-49
2021/04/17 04:43:42;;;;;;;20.30;11.43;;;;;;;5.32;95.45;99418.88;3464924;28;20049;-49
2021/04/17 04:45:24;;;;;;;20.08;11.25;;;;;;;5.34;95.32;99408.63;3468557;28;20057;-49
2021/04/17 04:47:05;;;;;;;19.67;11.02;;;;;;;5.35;95.60;99416.38;3464457;28;20049;-49
2021/04/17 04:48:47;;;;;;;18.65;9.63;;;;;;;5.37;95.48;99425.00;3466168;28;20041;-48
2021/04/17 04:50:29;;;;;;;17.90;9.80;;;;;;;5.39;95.52;99421.63;3465809;28;20061;-48
2021/04/17 04:52:10;;;;;;;19.25;10.30;;;;;;;5.42;95.54;99422.59;3464937;28;20092;-48
2021/04/17 04:53:51;;;;;;;20.63;10.82;;;;;;;5.44;95.57;99422.66;3454796;28;20084;-49
2021/04/17 04:55:33;;;;;;;17.13;10.07;;;;;;;5.47;95.31;99422.75;3461420;28;20474;-59
2021/04/17 04:57:14;;;;;;;16.02;8.98;;;;;;;5.48;95.26;99427.94;3468120;28;20080;-59
2021/04/17 04:58:55;;;;;;;15.60;9.43;;;;;;;5.49;95.45;99429.66;3464803;28;20060;-57
2021/04/17 05:00:37;;;;;;;17.75;8.85;;;;;;;5.52;95.25;99434.91;3466489;28;20072;-54
2021/04/17 05:02:19;;;;;;;12.98;7.82;;;;;;;5.51;95.07;99429.72;3466909;28;20060;-52
2021/04/17 05:04:00;;;;;;;18.15;9.05;;;;;;;5.51;94.86;99427.16;3465155;28;20049;-52
2021/04/17 05:05:42;;;;;;;14.65;8.85;;;;;;;5.51;95.08;99430.59;3470299;28;20053;-50
2021/04/17 05:07:23;;;;;;;17.40;9.60;;;;;;;5.53;94.94;99431.50;3466884;28;20100;-54
2021/04/17 05:09:05;;;;;;;15.77;9.45;;;;;;;5.56;95.21;99425.59;3470355;28;20064;-49
2021/04/17 05:10:47;;;;;;;16.20;9.50;;;;;;;5.61;95.09;99438.59;3465547;28;20529;-52
2021/04/17 05:12:28;;;;;;;18.48;9.93;;;;;;;5.63;94.99;99444.66;3468002;28;20049;-51
2021/04/17 05:14:09;;;;;;;14.90;8.77;;;;;;;5.62;95.11;99435.19;3468165;28;20195;-53
2021/04/17 05:15:51;;;;;;;16.02;9.20;;;;;;;5.63;95.00;99436.94;3467130;28;20053;-59
2021/04/17 05:17:33;;;;;;;12.50;6.22;;;;;;;5.63;94.93;99442.94;3470001;28;20045;-59
2021/04/17 05:19:14;;;;;;;16.88;8.35;;;;;;;5.61;94.19;99443.75;3466951;28;20056;-59
2021/04/17 05:20:56;;;;;;;13.13;7.68;;;;;;;5.59;94.49;99441.13;3470129;28;20593;-59
2021/04/17 05:22:37;;;;;;;14.30;8.32;;;;;;;5.58;94.29;99443.66;3467073;28;20056;-59
2021/04/17 05:24:19;;;;;;;15.18;8.25;;;;;;;5.55;94.00;99445.31;3468150;28;20096;-58
2021/04/17 05:26:00;;;;;;;15.27;7.97;;;;;;;5.54;94.37;99451.25;3468775;28;20053;-60
2021/04/17 05:27:42;;;;;;;12.10;7.05;;;;;;;5.54;93.92;99458.97;3467066;28;20049;-60
2021/04/17 05:29:23;;;;;;;13.98;8.57;;;;;;;5.52;93.94;99452.91;3470329;28;20050;-52
2021/04/17 05:31:05;;;;;;;15.15;9.00;;;;;;;5.52;94.03;99457.19;3466645;28;20653;-50
2021/04/17 05:32:46;;;;;;;15.27;7.70;;;;;;;5.52;93.97;99457.19;3470039;28;20057;-51
2021/04/17 05:34:28;;;;;;;13.27;8.07;;;;;;;5.54;94.37;99458.13;3466854;28;20089;-53
2021/04/17 05:36:10;;;;;;;16.98;8.60;;;;;;;5.55;94.17;99455.59;3468367;28;20059;-61
2021/04/17 05:37:51;;;;;;;13.75;7.05;;;;;;;5.58;94.08;99456.50;3468629;28;20077;-60
2021/04/17 05:39:32;;;;;;;17.02;8.48;;;;;;;5.60;94.26;99462.56;3466798;28;20052;-60
2021/04/17 05:41:14;;;;;;;13.43;8.43;;;;;;;5.63;94.26;99457.53;3470229;28;20119;-61
2021/04/17 05:42:55;;;;;;;15.40;8.55;;;;;;;5.66;94.50;99463.63;3465086;28;20084;-58
2021/04/17 05:44:37;;;;;;;17.33;8.68;;;;;;;5.69;94.35;99457.69;3456271;28;20113;-60
2021/04/17 05:46:19;;;;;;;12.55;7.78;;;;;;;5.70;93.81;99462.88;3465859;28;20119;-59
2021/04/17 05:48:00;;;;;;;14.52;8.60;;;;;;;5.70;93.86;99467.16;3467916;28;20603;-60
2021/04/17 05:49:42;;;;;;;13.98;8.45;;;;;;;5.70;93.76;99472.31;3468428;28;20045;-60
2021/04/17 05:51:23;;;;;;;15.02;8.63;;;;;;;5.69;93.89;99463.69;3466713;28;20054;-59
2021/04/17 05:53:05;;;;;;;13.40;7.50;;;;;;;5.68;93.58;99471.41;3469903;28;20049;-59
2021/04/17 05:54:46;;;;;;;13.02;8.32;;;;;;;5.66;94.03;99473.94;3466695;28;20052;-59
2021/04/17 05:56:28;;;;;;;13.00;7.78;;;;;;;5.68;93.86;99477.41;3469855;28;20049;-58
2021/04/17 05:58:10;;;;;;;14.63;8.18;;;;;;;5.68;93.74;99485.13;3466410;28;20041;-60
2021/04/17 05:59:51;;;;;;;14.00;8.13;;;;;;;5.68;93.99;99485.13;3467000;28;20136;-59
2021/04/17 06:01:33;;;;;;;15.07;6.82;;;;;;;5.68;93.67;99494.56;3467408;28;20087;-60
2021/04/17 06:03:15;;;;;;;11.65;6.95;;;;;;;5.67;93.69;99493.66;3466528;28;20045;-59
2021/04/17 06:04:57;;;;;;;8.63;5.68;;;;;;;5.67;93.60;99495.38;3469552;28;20053;-60
2021/04/17 06:06:38;;;;;;;14.07;7.63;;;;;;;5.69;93.67;99493.72;3466363;28;20162;-60
2021/04/17 06:08:19;;;;;;;13.57;7.80;;;;;;;5.70;94.07;99498.06;3469937;28;20053;-60
2021/04/17 06:10:01;;;;;;;13.73;7.13;;;;;;;5.69;93.85;99497.16;3464832;28;20069;-59
2021/04/17 06:11:42;;;;;;;11.70;6.18;;;;;;;5.68;93.42;99492.00;3468183;28;20469;-58
2021/04/17 06:13:24;;;;;;;11.85;7.32;;;;;;;5.68;93.75;99490.28;3466589;28;20091;-55
2021/04/17 06:15:06;;;;;;;12.45;7.38;;;;;;;5.69;93.70;99491.16;3467130;28;20049;-52
2021/04/17 06:16:48;;;;;;;11.57;6.40;;;;;;;5.70;93.62;99496.34;3467509;28;20111;-52
2021/04/17 06:18:30;;;;;;;11.57;6.53;;;;;;;5.71;93.48;99492.94;3466062;28;20052;-53
2021/04/17 06:20:13;;;;;;;13.50;7.57;;;;;;;5.74;94.14;99495.59;3469349;28;20466;-55
2021/04/17 06:21:54;;;;;;;10.57;5.85;;;;;;;5.77;93.47;99499.97;3466199;28;20046;-55
2021/04/17 06:23:36;;;;;;;11.85;6.85;;;;;;;5.79;93.63;99500.91;3467874;28;20423;-54
2021/04/17 06:25:17;;;;;;;15.20;7.13;;;;;;;5.82;93.70;99494.94;3467158;28;20084;-58
2021/04/17 06:26:59;;;;;;;10.30;6.00;;;;;;;5.86;93.77;99504.53;3467162;28;20533;-58
2021/04/17 06:28:40;;;;;;;8.50;5.47;;;;;;;5.87;93.39;99511.41;3468769;28;20054;-59
2021/04/17 06:30:21;;;;;;;10.40;6.45;;;;;;;5.89;93.54;99513.22;3466007;28;20073;-59
2021/04/17 06:32:04;;;;;;;10.00;5.97;;;;;;;5.94;93.82;99508.19;3469401;28;20053;-59
2021/04/17 06:33:45;;;;;;;9.80;6.00;;;;;;;5.96;93.21;99508.22;3466144;28;20057;-59
2021/04/17 06:35:28;;;;;;;10.32;6.18;;;;;;;5.98;93.44;99506.56;3467934;28;20419;-59
2021/04/17 06:37:09;;;;;;;8.45;5.35;;;;;;;5.99;92.98;99509.19;3466768;28;20438;-59
2021/04/17 06:38:50;;;;;;;8.25;5.28;;;;;;;5.99;93.12;99498.91;3465985;28;20081;-60
2021/04/17 06:40:31;;;;;;;8.25;4.60;;;;;;;6.03;92.78;99499.84;3468349;28;20069;-59
2021/04/17 06:42:15;;;;;;;7.45;3.65;;;;;;;6.06;92.69;99505.97;3466044;28;20041;-59
2021/04/17 06:43:57;;;;;;;7.55;4.35;;;;;;;6.08;92.38;99499.19;3469375;28;20054;-59
2021/04/17 06:45:40;;;;;;;7.40;4.30;;;;;;;6.13;92.39;99502.78;3465783;28;20478;-59
2021/04/17 06:47:21;;;;;;;6.85;3.85;;;;;;;6.17;92.20;99508.00;3467450;28;20057;-59
2021/04/17 06:49:06;;;;;;;7.38;4.43;;;;;;;6.28;92.29;99504.03;3467970;28;20095;-59
2021/04/17 06:50:48;;;;;;;6.32;4.25;;;;;;;6.34;91.88;99505.91;3466473;28;20064;-59
2021/04/17 06:52:31;;;;;;;8.57;5.47;;;;;;;6.40;91.78;99513.78;3468867;28;20049;-59
2021/04/17 06:54:19;;;;;;;8.05;4.43;;;;;;;6.45;91.52;99510.53;3465740;28;20546;-60
2021/04/17 06:56:00;;;;;;;8.00;4.00;;;;;;;6.46;91.11;99513.97;3468716;28;20049;-59
2021/04/17 06:57:45;;;;;;;4.22;2.33;;;;;;;6.49;91.00;99511.50;3466049;28;20418;-60
2021/04/17 06:59:26;;;;;;;4.75;2.85;;;;;;;6.53;90.49;99518.47;3466313;28;20049;-59
2021/04/17 07:01:08;;;;;;;6.63;3.63;;;;;;;6.57;91.03;99520.28;3468755;28;20184;-60
2021/04/17 07:02:50;;;;;;;5.85;3.80;;;;;;;6.59;90.44;99512.59;3465786;28;20566;-59
2021/04/17 07:04:32;;;;;;;6.68;3.30;;;;;;;6.66;90.88;99512.78;3469236;28;20537;-49
2021/04/17 07:06:14;;;;;;;6.93;3.80;;;;;;;6.77;90.59;99514.78;3465904;28;20053;-49
2021/04/17 07:07:55;;;;;;;10.07;5.05;;;;;;;6.84;90.67;99514.09;3467804;28;20418;-50
2021/04/17 07:09:36;;;;;;;7.75;4.88;;;;;;;6.94;90.77;99517.81;3466885;28;20050;-51
2021/04/17 07:11:18;;;;;;;8.27;4.60;;;;;;;7.01;90.35;99519.75;3466145;28;20530;-50
2021/04/17 07:13:07;;;;;;;10.20;5.57;;;;;;;7.03;90.19;99518.94;3467109;28;20053;-49
2021/04/17 07:14:50;;;;;;;9.40;5.40;;;;;;;7.01;89.62;99515.44;3465606;28;20084;-50
2021/04/17 07:16:31;;;;;;;7.50;4.53;;;;;;;7.01;89.09;99524.91;3468548;28;20499;-50
2021/04/17 07:18:32;;;;;;;8.80;5.35;;;;;;;6.98;89.08;99532.56;3461135;28;20465;-52
2021/04/17 07:20:15;;;;;;;9.93;4.57;;;;;;;7.00;89.75;99530.88;3458278;28;20085;-49
2021/04/17 07:22:14;;;;;;;10.82;6.03;;;;;;;7.03;89.88;99528.38;3466693;28;20564;-50
2021/04/17 07:23:56;;;;;;;8.30;5.60;;;;;;;7.03;89.92;99529.25;3465533;28;20052;-50
2021/04/17 07:25:37;;;;;;;7.32;4.82;;;;;;;7.05;89.85;99537.03;3468368;28;20518;-49
2021/04/17 07:27:35;;;;;;;7.18;4.95;;;;;;;7.03;89.99;99536.13;3464450;28;20053;-49
2021/04/17 07:29:16;;;;;;;9.70;5.68;;;;;;;7.10;90.43;99544.91;3464401;28;20053;-49
2021/04/17 07:30:58;;;;;;;7.85;4.43;;;;;;;7.14;90.49;99546.72;3467733;28;20140;-49
2021/04/17 07:32:39;;;;;;;6.65;4.35;;;;;;;7.16;89.29;99542.47;3465473;28;20045;-48
2021/04/17 07:34:24;;;;;;;9.80;5.10;;;;;;;7.21;89.84;99543.44;3468982;28;20049;-49
2021/04/17 07:36:06;;;;;;;6.75;4.20;;;;;;;7.21;88.33;99549.50;3465314;28;20053;-48
2021/04/17 07:37:49;;;;;;;6.20;3.80;;;;;;;7.23;89.38;99544.38;3466758;28;20422;-49
2021/04/17 07:39:33;;;;;;;6.27;4.10;;;;;;;7.24;88.35;99553.84;3467234;28;20061;-49
2021/04/17 07:41:15;;;;;;;;;;;;;;;7.19;87.79;99553.72;3465974;28;20569;-58
2021/04/17 07:42:57;;;;;;;7.63;4.57;;;;;;;7.20;87.78;99549.47;3468595;28;20428;-58
2021/04/17 07:44:42;;;;;;;9.10;5.22;;;;;;;7.22;88.59;99547.78;3465315;28;20049;-58
2021/04/17 07:46:31;;;;;;;7.80;4.88;;;;;;;7.32;89.69;99544.59;3468198;28;20056;-58
2021/04/17 07:48:22;;;;;;;7.45;4.22;;;;;;;7.40;88.58;99547.38;3465717;28;20115;-58
2021/04/17 07:50:05;;;;;;;6.57;3.88;;;;;;;7.51;88.20;99552.78;3465205;28;20049;-58
2021/04/17 07:51:58;;;;;;;5.43;3.28;;;;;;;7.59;86.89;99544.38;3468704;28;20053;-57
2021/04/17 07:53:41;;;;;;;5.13;3.42;;;;;;;7.66;86.30;99540.25;3465107;28;20065;-57
2021/04/17 07:55:23;;;;;;;5.45;4.25;;;;;;;7.73;86.22;99541.28;3468351;28;20045;-58
2021/04/17 07:57:06;;;;;;;5.05;3.33;;;;;;;7.79;85.36;99539.69;3465559;28;20050;-57
2021/04/17 07:58:48;;;;;;;5.40;3.50;;;;;;;7.86;84.58;99548.44;3465869;28;20065;-58
2021/04/17 08:00:30;;;;;;;6.00;3.85;;;;;;;7.89;85.51;99553.69;3467445;28;20057;-47
2021/04/17 08:02:14;;;;;;;8.05;4.25;;;;;;;7.89;86.30;99550.22;3465208;28;20052;-47
2021/04/17 08:03:58;;;;;;;7.57;4.57;;;;;;;7.95;87.75;99551.25;3468573;28;20049;-46